TNCB/BON METAR and TAF weather

Enter ICAO airport designator
Station Type Date Time Source
TNCB METAR 2022/01/29 12:55 UTC NOAA

TNCB 291255Z AUTO 08008KT 040V120 9999 SCT019/// 28/22 Q1014


Station Type Date Time Source
TNCB Decoded METAR 2022/01/29 12:55 UTC NOAA

Flamingo Airport, Bonaire, Netherlands Antilles (TNCB) 12-09N 068-17W 7M
Jan 29, 2022 - 07:55 AM EST / 2022.01.29 1255 UTC
Wind: from the E (080 degrees) at 9 MPH (8 KT) (direction variable):0
Visibility: greater than 7 mile(s):0
Sky conditions: partly cloudy
Temperature: 82 F (28 C)
Dew Point: 71 F (22 C)
Relative Humidity: 69%
Pressure (altimeter): 29.94 in. Hg (1014 hPa)
ob: TNCB 291255Z AUTO 08008KT 040V120 9999 SCT019/// 28/22 Q1014
cycle: 13

Station Type Date Time Source
TNCB TAF 2022/01/29 12:27 UTC NOAA

TAF TAF TNCB 291115Z 2912/3018 08010KT 9999 SCT025
TEMPO 3008/3016 3000 SHRA BKN012 SCT018TCU

Example: see airport list